createdAt,value
2022-10-06T00:02:23.657Z,98.70
2022-10-06T00:04:50.292Z,98.34
2022-10-06T00:07:17.243Z,98.64
2022-10-06T00:09:43.911Z,98.61
2022-10-06T00:12:10.932Z,98.96
2022-10-06T00:14:37.903Z,98.87
2022-10-06T00:17:05.203Z,99.13
2022-10-06T00:19:31.837Z,99.13
2022-10-06T00:21:58.724Z,100.00
2022-10-06T00:24:25.321Z,100.00
2022-10-06T00:26:51.925Z,100.00
2022-10-06T00:29:18.936Z,100.00
2022-10-06T00:31:45.796Z,100.00
2022-10-06T00:34:13.047Z,100.00
2022-10-06T00:36:39.924Z,100.00
2022-10-06T00:39:06.530Z,100.00
2022-10-06T00:41:33.265Z,100.00
2022-10-06T00:44:00.211Z,100.00
2022-10-06T00:46:38.738Z,100.00
2022-10-06T00:49:16.729Z,100.00
2022-10-06T00:51:48.033Z,100.00
2022-10-06T00:54:16.478Z,100.00
2022-10-06T00:56:43.160Z,100.00
2022-10-06T00:59:14.341Z,100.00
2022-10-06T01:01:46.665Z,100.00
2022-10-06T01:04:15.510Z,100.00
2022-10-06T01:06:45.392Z,100.00
2022-10-06T01:09:14.775Z,100.00
2022-10-06T01:11:41.844Z,100.00
2022-10-06T01:14:08.392Z,100.00
2022-10-06T01:16:37.957Z,100.00
2022-10-06T01:19:10.630Z,100.00
2022-10-06T01:21:47.209Z,100.00
2022-10-06T01:24:14.182Z,100.00
2022-10-06T01:26:45.455Z,100.00
2022-10-06T01:29:13.059Z,100.00
2022-10-06T01:31:39.978Z,100.00
2022-10-06T01:34:06.636Z,100.00
2022-10-06T01:36:33.188Z,100.00
2022-10-06T01:38:59.723Z,100.00
2022-10-06T01:41:27.890Z,100.00
2022-10-06T01:43:54.505Z,100.00
2022-10-06T01:46:21.529Z,100.00
2022-10-06T01:48:48.255Z,100.00
2022-10-06T01:51:18.612Z,100.00
2022-10-06T01:53:45.119Z,100.00
2022-10-06T01:56:12.075Z,100.00
2022-10-06T01:58:38.637Z,100.00
2022-10-06T02:01:09.186Z,100.00
2022-10-06T02:03:39.357Z,100.00
2022-10-06T02:06:07.192Z,100.00
2022-10-06T02:08:34.385Z,100.00
2022-10-06T02:11:11.321Z,100.00
2022-10-06T02:13:38.493Z,100.00
2022-10-06T02:16:06.870Z,100.00
2022-10-06T02:18:34.470Z,100.00
2022-10-06T02:21:02.427Z,100.00
2022-10-06T02:23:30.180Z,100.00
2022-10-06T02:26:05.453Z,100.00
2022-10-06T02:28:32.983Z,100.00
2022-10-06T02:31:04.951Z,100.00
2022-10-06T02:33:31.694Z,100.00
2022-10-06T02:35:59.142Z,100.00
2022-10-06T02:38:26.427Z,100.00
2022-10-06T02:40:53.636Z,100.00
2022-10-06T02:43:21.464Z,100.00
2022-10-06T02:45:56.075Z,100.00
2022-10-06T02:48:27.678Z,100.00
2022-10-06T02:50:59.478Z,100.00
2022-10-06T02:53:26.958Z,100.00
2022-10-06T02:56:11.693Z,100.00
2022-10-06T02:58:42.928Z,100.00
2022-10-06T03:01:18.599Z,100.00
2022-10-06T03:03:48.703Z,100.00
2022-10-06T03:06:27.588Z,100.00
2022-10-06T03:08:58.824Z,100.00
2022-10-06T03:11:31.874Z,100.00
2022-10-06T03:13:58.830Z,100.00
2022-10-06T03:16:28.499Z,100.00
2022-10-06T03:18:56.050Z,100.00
2022-10-06T03:21:25.405Z,100.00
2022-10-06T03:23:53.970Z,100.00
2022-10-06T03:26:23.349Z,100.00
2022-10-06T03:28:50.454Z,100.00
2022-10-06T03:31:17.974Z,100.00
2022-10-06T03:33:44.707Z,100.00
2022-10-06T03:36:14.008Z,100.00
2022-10-06T03:38:41.054Z,100.00
2022-10-06T03:41:11.450Z,100.00
2022-10-06T03:43:39.159Z,100.00
2022-10-06T03:46:07.005Z,100.00
2022-10-06T03:48:35.413Z,100.00
2022-10-06T03:51:14.106Z,100.00
2022-10-06T03:53:44.532Z,100.00
2022-10-06T03:56:18.653Z,100.00
2022-10-06T03:58:49.136Z,100.00
2022-10-06T04:01:25.660Z,100.00
2022-10-06T04:03:54.250Z,100.00
2022-10-06T04:06:21.149Z,100.00
2022-10-06T04:08:49.415Z,100.00
2022-10-06T04:11:20.332Z,100.00
2022-10-06T04:13:48.365Z,100.00
2022-10-06T04:16:26.552Z,100.00
2022-10-06T04:18:55.400Z,100.00
2022-10-06T04:21:22.961Z,100.00
2022-10-06T04:23:49.623Z,100.00
2022-10-06T04:26:21.155Z,100.00
2022-10-06T04:28:47.879Z,100.00
2022-10-06T04:31:20.508Z,100.00
2022-10-06T04:33:50.322Z,100.00
2022-10-06T04:36:23.575Z,100.00
2022-10-06T04:38:52.134Z,100.00
2022-10-06T04:41:20.291Z,100.00
2022-10-06T04:43:48.532Z,100.00
2022-10-06T04:46:41.565Z,100.00
2022-10-06T04:49:04.139Z,100.00
2022-10-06T04:51:30.732Z,100.00
2022-10-06T04:53:57.302Z,100.00
2022-10-06T04:56:26.960Z,100.00
2022-10-06T04:58:55.317Z,100.00
2022-10-06T05:01:23.386Z,100.00
2022-10-06T05:03:52.661Z,100.00
2022-10-06T05:06:22.237Z,100.00
2022-10-06T05:08:50.209Z,100.00
2022-10-06T05:11:20.305Z,100.00
2022-10-06T05:13:56.266Z,100.00
2022-10-06T05:16:24.611Z,100.00
2022-10-06T05:18:51.447Z,100.00
2022-10-06T05:21:21.005Z,100.00
2022-10-06T05:23:48.143Z,100.00
2022-10-06T05:26:26.778Z,100.00
2022-10-06T05:28:53.405Z,100.00
2022-10-06T05:31:22.878Z,100.00
2022-10-06T05:33:49.708Z,100.00
2022-10-06T05:36:23.286Z,100.00
2022-10-06T05:38:50.328Z,100.00
2022-10-06T05:41:19.578Z,100.00
2022-10-06T05:43:46.774Z,100.00
2022-10-06T05:46:28.285Z,100.00
2022-10-06T05:49:10.473Z,100.00
2022-10-06T05:51:38.962Z,100.00
2022-10-06T05:54:06.004Z,100.00
2022-10-06T05:56:35.411Z,100.00
2022-10-06T05:59:02.196Z,100.00
2022-10-06T06:01:31.835Z,100.00
2022-10-06T06:04:02.761Z,100.00
2022-10-06T06:06:35.250Z,100.00
2022-10-06T06:09:09.296Z,100.00
2022-10-06T06:11:37.879Z,100.00
2022-10-06T06:14:10.285Z,100.00
2022-10-06T06:16:39.071Z,100.00
2022-10-06T06:19:08.293Z,100.00
2022-10-06T06:21:35.271Z,100.00
2022-10-06T06:24:03.135Z,100.00
2022-10-06T06:26:32.002Z,100.00
2022-10-06T06:29:02.780Z,99.49
2022-10-06T06:31:32.403Z,100.00
2022-10-06T06:34:00.641Z,99.25
2022-10-06T06:36:47.551Z,98.27
2022-10-06T06:39:14.859Z,98.29
2022-10-06T06:41:45.339Z,97.82
2022-10-06T06:44:13.960Z,97.58
2022-10-06T06:46:43.370Z,98.15
2022-10-06T06:49:12.049Z,98.31
2022-10-06T06:51:49.586Z,97.87
2022-10-06T06:54:17.042Z,98.39
2022-10-06T06:56:45.640Z,96.43
2022-10-06T06:59:13.758Z,95.49
2022-10-06T07:01:45.795Z,94.23
2022-10-06T07:04:14.728Z,93.79
2022-10-06T07:06:42.754Z,91.03
2022-10-06T07:09:14.347Z,89.48
2022-10-06T07:11:41.362Z,88.18
2022-10-06T07:14:10.040Z,87.10
2022-10-06T07:16:55.471Z,85.06
2022-10-06T07:19:40.739Z,85.36
2022-10-06T07:22:25.760Z,84.07
2022-10-06T07:25:11.631Z,83.18
2022-10-06T07:27:43.198Z,82.34
2022-10-06T07:30:13.215Z,81.00
2022-10-06T07:32:39.796Z,80.99
2022-10-06T07:35:07.259Z,79.34
2022-10-06T07:37:37.266Z,79.94
2022-10-06T07:40:06.675Z,78.84
2022-10-06T07:42:49.049Z,77.46
2022-10-06T07:45:39.232Z,76.46
2022-10-06T07:48:20.446Z,75.84
2022-10-06T07:50:51.006Z,75.46
2022-10-06T07:56:10.107Z,73.35
2022-10-06T08:07:10.331Z,71.36
2022-10-06T08:09:37.560Z,71.96
2022-10-06T08:12:24.117Z,72.02
2022-10-06T08:14:50.818Z,71.21
2022-10-06T08:17:17.661Z,71.00
2022-10-06T08:19:44.336Z,70.20
2022-10-06T08:22:12.718Z,68.91
2022-10-06T08:25:04.323Z,69.48
2022-10-06T08:27:28.500Z,67.98
2022-10-06T08:29:55.839Z,67.99
2022-10-06T08:32:24.710Z,67.69
2022-10-06T10:53:55.470Z,60.25
2022-10-06T10:56:26.222Z,60.68
2022-10-06T10:58:56.637Z,59.70
2022-10-06T11:01:47.942Z,60.43
2022-10-06T11:04:14.539Z,59.59
2022-10-06T11:07:14.869Z,58.50
2022-10-06T11:09:59.485Z,58.20
2022-10-06T11:12:33.962Z,59.05
2022-10-06T11:15:06.442Z,60.41
2022-10-06T11:17:46.916Z,60.51
2022-10-06T11:20:23.183Z,59.57
2022-10-06T11:23:14.959Z,58.81
2022-10-06T11:25:56.651Z,59.55
2022-10-06T11:28:32.129Z,60.67
2022-10-06T11:31:19.994Z,60.59
2022-10-06T11:33:58.911Z,59.69
2022-10-06T11:36:51.314Z,59.31
2022-10-06T11:39:27.151Z,56.85
2022-10-06T11:42:11.606Z,56.91
2022-10-06T11:44:59.956Z,57.93
2022-10-06T11:47:53.657Z,58.78
2022-10-06T11:50:42.644Z,60.20
2022-10-06T11:53:28.427Z,58.21
2022-10-06T11:56:16.862Z,56.39
2022-10-06T11:58:52.138Z,57.14
2022-10-06T12:01:30.724Z,57.05
2022-10-06T12:04:09.422Z,56.88
2022-10-06T12:06:41.896Z,56.29
2022-10-06T12:09:44.802Z,56.46
2022-10-06T12:12:20.990Z,57.73
2022-10-06T12:18:28.245Z,57.82
2022-10-06T12:21:17.676Z,57.33
2022-10-06T12:24:06.259Z,56.15
2022-10-06T12:26:54.051Z,56.79
2022-10-06T12:29:55.916Z,57.93
2022-10-06T12:32:55.647Z,57.55
2022-10-06T12:35:30.321Z,57.76
2022-10-06T12:38:20.921Z,57.78
2022-10-06T12:40:55.532Z,56.68
2022-10-06T12:43:22.538Z,57.53
2022-10-06T12:46:00.650Z,57.85
2022-10-06T12:48:52.110Z,57.92
2022-10-06T12:51:38.965Z,57.73
2022-10-06T12:54:11.356Z,59.33
2022-10-06T12:56:40.813Z,59.73
2022-10-06T12:59:20.379Z,59.79
2022-10-06T13:01:50.719Z,59.40
2022-10-06T13:04:34.113Z,59.32
2022-10-06T13:07:16.333Z,57.89
2022-10-06T13:09:43.359Z,58.66
2022-10-06T13:12:31.225Z,58.33
2022-10-06T13:15:15.789Z,59.54
2022-10-06T13:17:55.026Z,58.52
2022-10-06T13:20:36.819Z,58.57
2022-10-06T13:23:10.266Z,58.32
2022-10-06T13:25:48.523Z,59.12
2022-10-06T13:28:46.152Z,59.83
2022-10-06T13:31:21.616Z,58.69
2022-10-06T13:33:55.746Z,60.78
2022-10-06T13:36:23.644Z,60.05
2022-10-06T13:38:50.848Z,61.04
2022-10-06T13:41:20.557Z,60.79
2022-10-06T13:43:54.614Z,59.75
2022-10-06T13:46:25.205Z,60.29
2022-10-06T13:48:57.155Z,60.29
2022-10-06T13:51:29.826Z,58.77
2022-10-06T13:53:58.962Z,59.73
2022-10-06T13:56:34.708Z,60.40
2022-10-06T13:59:20.111Z,59.39
2022-10-06T14:01:46.878Z,59.95
2022-10-06T14:04:19.031Z,60.65
2022-10-06T14:07:01.454Z,61.94
2022-10-06T14:09:32.282Z,62.10
2022-10-06T14:12:11.626Z,61.85
2022-10-06T14:14:38.976Z,62.33
2022-10-06T14:17:06.240Z,62.46
2022-10-06T14:19:36.216Z,62.25
2022-10-06T14:22:04.751Z,62.23
2022-10-06T14:24:34.303Z,61.77
2022-10-06T14:27:02.718Z,62.57
2022-10-06T14:29:29.239Z,61.02
2022-10-06T14:31:55.776Z,60.87
2022-10-06T14:34:22.697Z,60.06
2022-10-06T14:36:55.302Z,61.01
2022-10-06T14:39:22.454Z,61.51
2022-10-06T14:41:49.057Z,61.75
2022-10-06T14:44:15.785Z,61.75
2022-10-06T14:46:47.093Z,61.98
2022-10-06T14:49:14.002Z,62.32
2022-10-06T14:51:42.505Z,62.60
2022-10-06T14:54:11.193Z,63.16
2022-10-06T14:56:39.870Z,62.11
2022-10-06T14:59:08.940Z,62.62
2022-10-06T15:01:37.847Z,63.15
2022-10-06T15:04:07.603Z,62.74
2022-10-06T15:06:52.643Z,63.03
2022-10-06T15:09:19.208Z,63.16
2022-10-06T15:11:45.813Z,63.45
2022-10-06T15:14:12.621Z,64.39
2022-10-06T15:16:42.181Z,64.09
2022-10-06T15:19:09.267Z,64.61
2022-10-06T15:21:39.053Z,65.06
2022-10-06T15:24:07.246Z,64.92
2022-10-06T15:26:52.680Z,65.07
2022-10-06T15:29:19.336Z,65.74
2022-10-06T15:31:52.930Z,65.34
2022-10-06T15:34:25.398Z,65.95
2022-10-06T15:36:53.129Z,65.67
2022-10-06T15:39:26.020Z,65.88
2022-10-06T15:41:53.202Z,64.84
2022-10-06T15:44:20.707Z,65.68
2022-10-06T15:46:49.836Z,65.49
2022-10-06T15:49:28.828Z,65.79
2022-10-06T15:51:59.283Z,66.03
2022-10-06T15:54:28.184Z,66.83
2022-10-06T15:56:57.500Z,68.58
2022-10-06T15:59:26.087Z,67.46
2022-10-06T16:01:58.265Z,68.32
2022-10-06T16:04:39.332Z,68.22
2022-10-06T16:07:07.805Z,68.06
2022-10-06T16:09:43.096Z,67.75
2022-10-06T16:12:11.860Z,67.63
2022-10-06T16:14:38.697Z,68.61
2022-10-06T16:17:07.009Z,69.37
2022-10-06T16:19:36.899Z,70.50
2022-10-06T16:22:05.938Z,70.12
2022-10-06T16:24:32.851Z,69.77
2022-10-06T16:27:00.238Z,69.79
2022-10-06T16:29:27.955Z,70.61
2022-10-06T16:31:54.976Z,71.13
2022-10-06T16:34:21.822Z,72.16
2022-10-06T16:36:48.324Z,74.59
2022-10-06T16:39:17.760Z,75.77
2022-10-06T16:41:44.936Z,76.03
2022-10-06T16:44:11.938Z,77.02
2022-10-06T16:46:38.840Z,77.21
2022-10-06T16:49:07.512Z,77.10
2022-10-06T16:51:40.618Z,77.26
2022-10-06T16:54:09.388Z,78.06
2022-10-06T16:56:41.011Z,78.14
2022-10-06T16:59:18.988Z,78.34
2022-10-06T17:01:46.404Z,77.95
2022-10-06T17:04:15.452Z,77.58
2022-10-06T17:06:44.715Z,77.55
2022-10-06T17:09:18.974Z,77.64
2022-10-06T17:11:48.136Z,78.57
2022-10-06T17:14:15.486Z,78.70
2022-10-06T17:16:43.536Z,79.17
2022-10-06T17:19:11.901Z,80.01
2022-10-06T17:21:48.779Z,79.88
2022-10-06T17:24:18.026Z,79.86
2022-10-06T17:26:47.342Z,80.02
2022-10-06T17:29:17.493Z,80.93
2022-10-06T17:31:45.023Z,80.83
2022-10-06T17:34:20.390Z,82.05
2022-10-06T17:36:49.988Z,81.97
2022-10-06T17:39:18.659Z,80.92
2022-10-06T17:41:47.114Z,81.79
2022-10-06T17:44:23.152Z,82.55
2022-10-06T17:46:55.524Z,83.33
2022-10-06T17:49:23.811Z,83.68
2022-10-06T17:51:51.582Z,83.16
2022-10-06T17:54:20.780Z,82.77
2022-10-06T17:56:49.217Z,83.29
2022-10-06T17:59:24.546Z,84.53
2022-10-06T18:01:52.173Z,85.02
2022-10-06T18:04:19.244Z,84.97
2022-10-06T18:06:47.273Z,84.84
2022-10-06T18:09:14.925Z,84.91
2022-10-06T18:11:43.673Z,85.52
2022-10-06T18:14:12.113Z,85.56
2022-10-06T18:16:41.389Z,85.79
2022-10-06T18:19:13.365Z,86.99
2022-10-06T18:21:41.472Z,87.94
2022-10-06T18:24:16.532Z,89.30
2022-10-06T18:26:48.256Z,88.61
2022-10-06T18:29:16.672Z,89.21
2022-10-06T18:31:44.695Z,89.52
2022-10-06T18:36:59.093Z,89.12
2022-10-06T18:39:25.618Z,90.23
2022-10-06T18:41:52.583Z,90.64
2022-10-06T18:44:39.105Z,90.37
2022-10-06T18:47:24.633Z,90.16
2022-10-06T18:49:52.883Z,91.58
2022-10-06T18:52:21.636Z,91.98
2022-10-06T18:54:48.914Z,91.67
2022-10-06T18:57:27.255Z,92.57
2022-10-06T18:59:55.333Z,93.48
2022-10-06T19:02:22.149Z,93.34
2022-10-06T19:04:50.275Z,92.89
2022-10-06T19:07:19.113Z,93.59
2022-10-06T19:09:46.987Z,93.69
2022-10-06T19:12:14.123Z,93.76
2022-10-06T19:14:47.110Z,93.12
2022-10-06T19:17:15.069Z,93.45
2022-10-06T19:19:51.364Z,95.03
2022-10-06T19:22:23.755Z,95.02
2022-10-06T19:24:51.232Z,95.78
2022-10-06T19:27:25.039Z,96.53
2022-10-06T19:29:54.389Z,96.42
2022-10-06T19:32:27.616Z,96.28
2022-10-06T19:34:58.943Z,95.68
2022-10-06T19:37:30.262Z,95.75
2022-10-06T19:39:57.494Z,95.44
2022-10-06T19:42:43.151Z,94.32
2022-10-06T19:45:12.084Z,95.25
2022-10-06T19:47:39.181Z,94.58
2022-10-06T19:50:12.601Z,94.54
2022-10-06T19:52:41.113Z,95.13
2022-10-06T19:55:07.778Z,94.59
2022-10-06T19:57:34.603Z,95.62
2022-10-06T20:00:01.596Z,95.09
2022-10-06T20:02:29.020Z,95.27
2022-10-06T20:05:00.187Z,95.78
2022-10-06T20:07:27.969Z,96.37
2022-10-06T20:09:55.064Z,96.30
2022-10-06T20:12:24.874Z,96.37
2022-10-06T20:14:53.591Z,96.89
2022-10-06T20:17:21.094Z,96.25
2022-10-06T20:19:48.084Z,96.04
2022-10-06T20:22:15.272Z,96.47
2022-10-06T20:24:41.891Z,95.79
2022-10-06T20:27:09.051Z,96.25
2022-10-06T20:29:35.776Z,96.10
2022-10-06T20:32:02.439Z,97.30
2022-10-06T20:34:32.165Z,96.31
2022-10-06T20:37:01.960Z,97.43
2022-10-06T20:40:09.023Z,97.54
2022-10-06T20:42:35.407Z,98.37
2022-10-06T20:45:01.938Z,98.72
2022-10-06T20:47:29.728Z,97.53
2022-10-06T20:49:56.213Z,97.35
2022-10-06T20:52:24.224Z,97.45
2022-10-06T20:54:51.363Z,97.25
2022-10-06T20:57:19.241Z,96.80
2022-10-06T20:59:46.245Z,96.97
2022-10-06T21:02:13.588Z,96.69
2022-10-06T21:04:41.524Z,97.14
2022-10-06T21:07:08.269Z,97.14
2022-10-06T21:09:35.027Z,96.70
2022-10-06T21:12:04.762Z,96.63
2022-10-06T21:14:31.527Z,97.09
2022-10-06T21:16:58.320Z,97.41
2022-10-06T21:19:25.441Z,97.64
2022-10-06T21:21:53.801Z,97.56
2022-10-06T21:24:21.058Z,97.61
2022-10-06T21:26:48.174Z,97.95
2022-10-06T21:29:15.902Z,98.34
2022-10-06T21:31:44.323Z,97.92
2022-10-06T21:34:11.367Z,97.97
2022-10-06T21:36:38.339Z,97.88
2022-10-06T21:39:06.054Z,97.64
2022-10-06T21:41:41.327Z,97.99
2022-10-06T21:44:10.169Z,98.52
2022-10-06T21:46:38.337Z,97.54
2022-10-06T21:49:07.733Z,98.12
2022-10-06T21:51:34.614Z,98.92
2022-10-06T21:54:01.827Z,99.46
2022-10-06T21:56:30.695Z,99.35
2022-10-06T21:58:58.112Z,100.00
2022-10-06T22:01:27.780Z,99.63
2022-10-06T22:03:54.785Z,100.00
2022-10-06T22:06:22.162Z,100.00
2022-10-06T22:08:49.240Z,99.51
2022-10-06T22:11:21.608Z,100.00
2022-10-06T22:13:50.973Z,100.00
2022-10-06T22:16:19.757Z,100.00
2022-10-06T22:18:47.042Z,100.00
2022-10-06T22:21:22.896Z,100.00
2022-10-06T22:24:05.076Z,100.00
2022-10-06T22:26:33.252Z,100.00
2022-10-06T22:29:00.697Z,100.00
2022-10-06T22:31:28.265Z,100.00
2022-10-06T22:33:56.830Z,100.00
2022-10-06T22:36:24.125Z,100.00
2022-10-06T22:38:50.866Z,100.00
2022-10-06T22:41:17.600Z,100.00
2022-10-06T22:43:44.172Z,100.00
2022-10-06T22:46:11.938Z,100.00
2022-10-06T22:48:39.205Z,100.00
2022-10-06T22:51:06.445Z,100.00
2022-10-06T22:53:33.705Z,100.00
2022-10-06T22:56:01.187Z,100.00
2022-10-06T22:58:28.476Z,100.00
2022-10-06T23:00:55.963Z,100.00
2022-10-06T23:03:23.361Z,100.00
2022-10-06T23:05:57.724Z,100.00
2022-10-06T23:08:25.669Z,100.00
2022-10-06T23:10:52.474Z,100.00
2022-10-06T23:13:19.585Z,100.00
2022-10-06T23:15:46.372Z,100.00
2022-10-06T23:18:13.815Z,100.00
2022-10-06T23:20:40.512Z,100.00
2022-10-06T23:23:07.115Z,100.00
2022-10-06T23:25:37.066Z,100.00
2022-10-06T23:28:03.763Z,100.00
2022-10-06T23:30:30.377Z,100.00
2022-10-06T23:32:56.973Z,100.00
2022-10-06T23:35:23.607Z,100.00
2022-10-06T23:37:50.192Z,100.00
2022-10-06T23:40:16.875Z,100.00
2022-10-06T23:42:43.455Z,100.00
2022-10-06T23:45:10.530Z,100.00
2022-10-06T23:47:37.074Z,100.00
2022-10-06T23:50:03.854Z,100.00
2022-10-06T23:52:30.482Z,100.00
2022-10-06T23:54:57.060Z,100.00
2022-10-06T23:57:23.697Z,100.00
2022-10-06T23:59:50.302Z,100.00
